sensor_id;sensor_type;location;lat;lon;timestamp;temperature;humidity
5086;DHT22;4715;51.660;7.082;2022-11-25T00:00:00;8.70;99.90
5086;DHT22;4715;51.660;7.082;2022-11-25T00:02:23;8.70;99.90
5086;DHT22;4715;51.660;7.082;2022-11-25T00:04:45;8.70;99.90
5086;DHT22;4715;51.660;7.082;2022-11-25T00:07:07;8.70;99.90
5086;DHT22;4715;51.660;7.082;2022-11-25T00:09:29;8.70;99.90
5086;DHT22;4715;51.660;7.082;2022-11-25T00:11:51;8.70;99.90
5086;DHT22;4715;51.660;7.082;2022-11-25T00:14:13;8.70;99.90
5086;DHT22;4715;51.660;7.082;2022-11-25T00:16:35;8.70;99.90
5086;DHT22;4715;51.660;7.082;2022-11-25T00:18:59;8.70;99.90
5086;DHT22;4715;51.660;7.082;2022-11-25T00:21:22;8.70;99.90
5086;DHT22;4715;51.660;7.082;2022-11-25T00:23:49;8.70;99.90
5086;DHT22;4715;51.660;7.082;2022-11-25T00:26:13;8.70;99.90
5086;DHT22;4715;51.660;7.082;2022-11-25T00:28:35;8.70;99.90
5086;DHT22;4715;51.660;7.082;2022-11-25T00:31:03;8.70;99.90
5086;DHT22;4715;51.660;7.082;2022-11-25T00:33:25;8.80;99.90
5086;DHT22;4715;51.660;7.082;2022-11-25T00:35:48;8.70;99.90
5086;DHT22;4715;51.660;7.082;2022-11-25T00:38:10;8.80;99.90
5086;DHT22;4715;51.660;7.082;2022-11-25T00:40:32;8.80;99.90
5086;DHT22;4715;51.660;7.082;2022-11-25T00:42:53;8.80;99.90
5086;DHT22;4715;51.660;7.082;2022-11-25T00:45:33;8.80;99.90
5086;DHT22;4715;51.660;7.082;2022-11-25T00:47:54;8.80;99.90
5086;DHT22;4715;51.660;7.082;2022-11-25T00:50:16;8.80;99.90
5086;DHT22;4715;51.660;7.082;2022-11-25T00:52:42;8.80;99.90
5086;DHT22;4715;51.660;7.082;2022-11-25T00:55:04;8.80;99.90
5086;DHT22;4715;51.660;7.082;2022-11-25T00:57:28;8.90;99.90
5086;DHT22;4715;51.660;7.082;2022-11-25T00:59:49;8.90;99.90
5086;DHT22;4715;51.660;7.082;2022-11-25T01:02:13;8.90;99.90
5086;DHT22;4715;51.660;7.082;2022-11-25T01:04:35;8.90;99.90
5086;DHT22;4715;51.660;7.082;2022-11-25T01:06:57;9.00;99.90
5086;DHT22;4715;51.660;7.082;2022-11-25T01:09:21;9.00;99.90
5086;DHT22;4715;51.660;7.082;2022-11-25T01:11:43;9.00;99.90
5086;DHT22;4715;51.660;7.082;2022-11-25T01:14:05;9.00;99.90
5086;DHT22;4715;51.660;7.082;2022-11-25T01:16:27;9.00;99.90
5086;DHT22;4715;51.660;7.082;2022-11-25T01:18:50;9.00;99.90
5086;DHT22;4715;51.660;7.082;2022-11-25T01:21:13;9.00;99.90
5086;DHT22;4715;51.660;7.082;2022-11-25T01:23:35;9.00;99.90
5086;DHT22;4715;51.660;7.082;2022-11-25T01:26:01;9.00;99.90
5086;DHT22;4715;51.660;7.082;2022-11-25T01:28:23;9.00;99.90
5086;DHT22;4715;51.660;7.082;2022-11-25T01:30:45;9.00;99.90
5086;DHT22;4715;51.660;7.082;2022-11-25T01:33:07;9.10;99.90
5086;DHT22;4715;51.660;7.082;2022-11-25T01:35:28;9.10;99.90
5086;DHT22;4715;51.660;7.082;2022-11-25T01:37:50;9.10;99.90
5086;DHT22;4715;51.660;7.082;2022-11-25T01:40:12;9.00;99.90
5086;DHT22;4715;51.660;7.082;2022-11-25T01:42:41;9.00;99.90
5086;DHT22;4715;51.660;7.082;2022-11-25T01:45:32;9.10;99.90
5086;DHT22;4715;51.660;7.082;2022-11-25T01:47:57;9.10;99.90
5086;DHT22;4715;51.660;7.082;2022-11-25T01:50:23;9.00;99.90
5086;DHT22;4715;51.660;7.082;2022-11-25T01:52:47;9.00;99.90
5086;DHT22;4715;51.660;7.082;2022-11-25T01:55:12;9.00;99.90
5086;DHT22;4715;51.660;7.082;2022-11-25T01:57:39;9.00;99.90
5086;DHT22;4715;51.660;7.082;2022-11-25T02:00:06;9.00;99.90
5086;DHT22;4715;51.660;7.082;2022-11-25T02:02:29;9.00;99.90
5086;DHT22;4715;51.660;7.082;2022-11-25T02:04:51;9.00;99.90
5086;DHT22;4715;51.660;7.082;2022-11-25T02:07:17;9.00;99.90
5086;DHT22;4715;51.660;7.082;2022-11-25T02:09:42;9.00;99.90
5086;DHT22;4715;51.660;7.082;2022-11-25T02:12:05;9.00;99.90
5086;DHT22;4715;51.660;7.082;2022-11-25T02:14:28;9.00;99.90
5086;DHT22;4715;51.660;7.082;2022-11-25T02:16:50;9.00;99.90
5086;DHT22;4715;51.660;7.082;2022-11-25T02:19:19;9.00;99.90
5086;DHT22;4715;51.660;7.082;2022-11-25T02:21:51;9.10;99.90
5086;DHT22;4715;51.660;7.082;2022-11-25T02:24:19;9.10;99.90
5086;DHT22;4715;51.660;7.082;2022-11-25T02:26:47;9.10;99.90
5086;DHT22;4715;51.660;7.082;2022-11-25T02:29:09;9.10;99.90
5086;DHT22;4715;51.660;7.082;2022-11-25T02:31:31;9.10;99.90
5086;DHT22;4715;51.660;7.082;2022-11-25T02:33:53;9.10;99.90
5086;DHT22;4715;51.660;7.082;2022-11-25T02:36:17;9.10;99.90
5086;DHT22;4715;51.660;7.082;2022-11-25T02:38:42;9.10;99.90
5086;DHT22;4715;51.660;7.082;2022-11-25T02:41:08;9.10;99.90
5086;DHT22;4715;51.660;7.082;2022-11-25T02:43:32;9.10;99.90
5086;DHT22;4715;51.660;7.082;2022-11-25T02:45:59;9.10;99.90
5086;DHT22;4715;51.660;7.082;2022-11-25T02:48:21;9.10;99.90
5086;DHT22;4715;51.660;7.082;2022-11-25T02:50:43;9.10;99.90
5086;DHT22;4715;51.660;7.082;2022-11-25T02:53:05;9.20;99.90
5086;DHT22;4715;51.660;7.082;2022-11-25T02:55:27;9.20;99.90
5086;DHT22;4715;51.660;7.082;2022-11-25T02:57:49;9.20;99.90
5086;DHT22;4715;51.660;7.082;2022-11-25T03:00:13;9.20;99.90
5086;DHT22;4715;51.660;7.082;2022-11-25T03:02:35;9.20;99.90
5086;DHT22;4715;51.660;7.082;2022-11-25T03:04:59;9.30;99.90
5086;DHT22;4715;51.660;7.082;2022-11-25T03:07:20;9.30;99.90
5086;DHT22;4715;51.660;7.082;2022-11-25T03:09:42;9.30;99.90
5086;DHT22;4715;51.660;7.082;2022-11-25T03:12:04;9.30;99.90
5086;DHT22;4715;51.660;7.082;2022-11-25T03:14:41;9.30;99.90
5086;DHT22;4715;51.660;7.082;2022-11-25T03:17:04;9.30;99.90
5086;DHT22;4715;51.660;7.082;2022-11-25T03:19:26;9.30;99.90
5086;DHT22;4715;51.660;7.082;2022-11-25T03:21:48;9.30;99.90
5086;DHT22;4715;51.660;7.082;2022-11-25T03:24:10;9.30;99.90
5086;DHT22;4715;51.660;7.082;2022-11-25T03:26:31;9.30;99.90
5086;DHT22;4715;51.660;7.082;2022-11-25T03:28:53;9.30;99.90
5086;DHT22;4715;51.660;7.082;2022-11-25T03:31:15;9.30;99.90
5086;DHT22;4715;51.660;7.082;2022-11-25T03:33:39;9.30;99.90
5086;DHT22;4715;51.660;7.082;2022-11-25T03:36:00;9.30;99.90
5086;DHT22;4715;51.660;7.082;2022-11-25T03:38:22;9.30;99.90
5086;DHT22;4715;51.660;7.082;2022-11-25T03:40:44;9.30;99.90
5086;DHT22;4715;51.660;7.082;2022-11-25T03:43:06;9.40;99.90
5086;DHT22;4715;51.660;7.082;2022-11-25T03:45:28;9.40;99.90
5086;DHT22;4715;51.660;7.082;2022-11-25T03:47:50;9.40;99.90
5086;DHT22;4715;51.660;7.082;2022-11-25T03:50:14;9.40;99.90
5086;DHT22;4715;51.660;7.082;2022-11-25T03:52:36;9.40;99.90
5086;DHT22;4715;51.660;7.082;2022-11-25T03:54:59;9.40;99.90
5086;DHT22;4715;51.660;7.082;2022-11-25T03:57:21;9.40;99.90
5086;DHT22;4715;51.660;7.082;2022-11-25T03:59:43;9.40;99.90
5086;DHT22;4715;51.660;7.082;2022-11-25T04:02:05;9.40;99.90
5086;DHT22;4715;51.660;7.082;2022-11-25T04:04:27;9.50;99.90
5086;DHT22;4715;51.660;7.082;2022-11-25T04:06:50;9.50;99.90
5086;DHT22;4715;51.660;7.082;2022-11-25T04:09:12;9.50;99.90
5086;DHT22;4715;51.660;7.082;2022-11-25T04:11:34;9.50;99.90
5086;DHT22;4715;51.660;7.082;2022-11-25T04:14:14;9.50;99.90
5086;DHT22;4715;51.660;7.082;2022-11-25T04:16:36;9.50;99.90
5086;DHT22;4715;51.660;7.082;2022-11-25T04:18:57;9.50;99.90
5086;DHT22;4715;51.660;7.082;2022-11-25T04:21:19;9.50;99.90
5086;DHT22;4715;51.660;7.082;2022-11-25T04:23:42;9.50;99.90
5086;DHT22;4715;51.660;7.082;2022-11-25T04:26:04;9.50;99.90
5086;DHT22;4715;51.660;7.082;2022-11-25T04:28:26;9.50;99.90
5086;DHT22;4715;51.660;7.082;2022-11-25T04:30:47;9.60;99.90
5086;DHT22;4715;51.660;7.082;2022-11-25T04:33:09;9.60;99.90
5086;DHT22;4715;51.660;7.082;2022-11-25T04:35:31;9.60;99.90
5086;DHT22;4715;51.660;7.082;2022-11-25T04:37:53;9.60;99.90
5086;DHT22;4715;51.660;7.082;2022-11-25T04:40:16;9.60;99.90
5086;DHT22;4715;51.660;7.082;2022-11-25T04:42:38;9.60;99.90
5086;DHT22;4715;51.660;7.082;2022-11-25T04:45:02;9.60;99.90
5086;DHT22;4715;51.660;7.082;2022-11-25T04:47:24;9.60;99.90
5086;DHT22;4715;51.660;7.082;2022-11-25T04:49:46;9.60;99.90
5086;DHT22;4715;51.660;7.082;2022-11-25T04:52:08;9.60;99.90
5086;DHT22;4715;51.660;7.082;2022-11-25T04:54:29;9.60;99.90
5086;DHT22;4715;51.660;7.082;2022-11-25T04:56:53;9.60;99.90
5086;DHT22;4715;51.660;7.082;2022-11-25T04:59:14;9.60;99.90
5086;DHT22;4715;51.660;7.082;2022-11-25T05:01:54;9.60;99.90
5086;DHT22;4715;51.660;7.082;2022-11-25T05:04:15;9.60;99.90
5086;DHT22;4715;51.660;7.082;2022-11-25T05:06:37;9.60;99.90
5086;DHT22;4715;51.660;7.082;2022-11-25T05:09:01;9.60;99.90
5086;DHT22;4715;51.660;7.082;2022-11-25T05:11:24;9.60;99.90
5086;DHT22;4715;51.660;7.082;2022-11-25T05:13:47;9.60;99.90
5086;DHT22;4715;51.660;7.082;2022-11-25T05:16:11;9.60;99.90
5086;DHT22;4715;51.660;7.082;2022-11-25T05:18:33;9.60;99.90
5086;DHT22;4715;51.660;7.082;2022-11-25T05:20:54;9.60;99.90
5086;DHT22;4715;51.660;7.082;2022-11-25T05:23:20;9.60;99.90
5086;DHT22;4715;51.660;7.082;2022-11-25T05:25:45;9.60;99.90
5086;DHT22;4715;51.660;7.082;2022-11-25T05:28:07;9.60;99.90
5086;DHT22;4715;51.660;7.082;2022-11-25T05:30:30;9.60;99.90
5086;DHT22;4715;51.660;7.082;2022-11-25T05:32:52;9.60;99.90
5086;DHT22;4715;51.660;7.082;2022-11-25T05:35:14;9.60;99.90
5086;DHT22;4715;51.660;7.082;2022-11-25T05:37:35;9.60;99.90
5086;DHT22;4715;51.660;7.082;2022-11-25T05:39:58;9.60;99.90
5086;DHT22;4715;51.660;7.082;2022-11-25T05:42:20;9.50;99.90
5086;DHT22;4715;51.660;7.082;2022-11-25T05:44:42;9.50;99.90
5086;DHT22;4715;51.660;7.082;2022-11-25T05:47:05;9.50;99.90
5086;DHT22;4715;51.660;7.082;2022-11-25T05:49:27;9.50;99.90
5086;DHT22;4715;51.660;7.082;2022-11-25T05:51:49;9.50;99.90
5086;DHT22;4715;51.660;7.082;2022-11-25T05:54:11;9.50;99.90
5086;DHT22;4715;51.660;7.082;2022-11-25T05:56:33;9.50;99.90
5086;DHT22;4715;51.660;7.082;2022-11-25T05:58:55;9.50;99.90
5086;DHT22;4715;51.660;7.082;2022-11-25T06:01:18;9.50;99.90
5086;DHT22;4715;51.660;7.082;2022-11-25T06:03:42;9.50;99.90
5086;DHT22;4715;51.660;7.082;2022-11-25T06:06:05;9.50;99.90
5086;DHT22;4715;51.660;7.082;2022-11-25T06:08:27;9.50;99.90
5086;DHT22;4715;51.660;7.082;2022-11-25T06:10:49;9.50;99.90
5086;DHT22;4715;51.660;7.082;2022-11-25T06:13:11;9.50;99.90
5086;DHT22;4715;51.660;7.082;2022-11-25T06:15:33;9.50;99.90
5086;DHT22;4715;51.660;7.082;2022-11-25T06:17:56;9.50;99.90
5086;DHT22;4715;51.660;7.082;2022-11-25T06:20:19;9.50;99.90
5086;DHT22;4715;51.660;7.082;2022-11-25T06:22:41;9.50;99.90
5086;DHT22;4715;51.660;7.082;2022-11-25T06:25:03;9.50;99.90
5086;DHT22;4715;51.660;7.082;2022-11-25T06:27:27;9.50;99.90
5086;DHT22;4715;51.660;7.082;2022-11-25T06:29:49;9.50;99.90
5086;DHT22;4715;51.660;7.082;2022-11-25T06:32:13;9.40;99.90
5086;DHT22;4715;51.660;7.082;2022-11-25T06:34:35;9.40;99.90
5086;DHT22;4715;51.660;7.082;2022-11-25T06:37:02;9.40;99.90
5086;DHT22;4715;51.660;7.082;2022-11-25T06:39:24;9.40;99.90
5086;DHT22;4715;51.660;7.082;2022-11-25T06:41:46;9.40;99.90
5086;DHT22;4715;51.660;7.082;2022-11-25T06:44:08;9.40;99.90
5086;DHT22;4715;51.660;7.082;2022-11-25T06:46:30;9.40;99.90
5086;DHT22;4715;51.660;7.082;2022-11-25T06:48:52;9.40;99.90
5086;DHT22;4715;51.660;7.082;2022-11-25T06:51:15;9.40;99.90
5086;DHT22;4715;51.660;7.082;2022-11-25T06:53:39;9.40;99.90
5086;DHT22;4715;51.660;7.082;2022-11-25T06:56:03;9.40;99.90
5086;DHT22;4715;51.660;7.082;2022-11-25T06:58:27;9.40;99.90
5086;DHT22;4715;51.660;7.082;2022-11-25T07:00:51;9.40;99.90
5086;DHT22;4715;51.660;7.082;2022-11-25T07:03:12;9.40;99.90
5086;DHT22;4715;51.660;7.082;2022-11-25T07:05:34;9.40;99.90
5086;DHT22;4715;51.660;7.082;2022-11-25T07:07:56;9.40;99.90
5086;DHT22;4715;51.660;7.082;2022-11-25T07:10:21;9.40;99.90
5086;DHT22;4715;51.660;7.082;2022-11-25T07:12:42;9.40;99.90
5086;DHT22;4715;51.660;7.082;2022-11-25T07:15:06;9.40;99.90
5086;DHT22;4715;51.660;7.082;2022-11-25T07:17:28;9.40;99.90
5086;DHT22;4715;51.660;7.082;2022-11-25T07:19:49;9.30;99.90
5086;DHT22;4715;51.660;7.082;2022-11-25T07:22:11;9.30;99.90
5086;DHT22;4715;51.660;7.082;2022-11-25T07:24:33;9.40;99.90
5086;DHT22;4715;51.660;7.082;2022-11-25T07:26:56;9.40;99.90
5086;DHT22;4715;51.660;7.082;2022-11-25T07:29:18;9.40;99.90
5086;DHT22;4715;51.660;7.082;2022-11-25T07:31:43;9.40;99.90
5086;DHT22;4715;51.660;7.082;2022-11-25T07:34:07;9.40;99.90
5086;DHT22;4715;51.660;7.082;2022-11-25T07:36:31;9.40;99.90
5086;DHT22;4715;51.660;7.082;2022-11-25T07:38:53;9.40;99.90
5086;DHT22;4715;51.660;7.082;2022-11-25T07:41:17;9.40;99.90
5086;DHT22;4715;51.660;7.082;2022-11-25T07:43:43;9.40;99.90
5086;DHT22;4715;51.660;7.082;2022-11-25T07:46:10;9.40;99.90
5086;DHT22;4715;51.660;7.082;2022-11-25T07:48:32;9.40;99.90
5086;DHT22;4715;51.660;7.082;2022-11-25T07:50:54;9.40;99.90
5086;DHT22;4715;51.660;7.082;2022-11-25T07:53:16;9.40;99.90
5086;DHT22;4715;51.660;7.082;2022-11-25T07:55:38;9.40;99.90
5086;DHT22;4715;51.660;7.082;2022-11-25T07:58:00;9.40;99.90
5086;DHT22;4715;51.660;7.082;2022-11-25T08:00:23;9.40;99.90
5086;DHT22;4715;51.660;7.082;2022-11-25T08:02:45;9.40;99.90
5086;DHT22;4715;51.660;7.082;2022-11-25T08:05:09;9.40;99.90
5086;DHT22;4715;51.660;7.082;2022-11-25T08:07:31;9.40;99.90
5086;DHT22;4715;51.660;7.082;2022-11-25T08:09:53;9.40;99.90
5086;DHT22;4715;51.660;7.082;2022-11-25T08:12:15;9.40;99.90
5086;DHT22;4715;51.660;7.082;2022-11-25T08:14:36;9.40;99.90
5086;DHT22;4715;51.660;7.082;2022-11-25T08:17:01;9.40;99.90
5086;DHT22;4715;51.660;7.082;2022-11-25T08:19:25;9.40;99.90
5086;DHT22;4715;51.660;7.082;2022-11-25T08:21:47;9.40;99.90
5086;DHT22;4715;51.660;7.082;2022-11-25T08:24:12;9.40;99.90
5086;DHT22;4715;51.660;7.082;2022-11-25T08:26:35;9.40;99.90
5086;DHT22;4715;51.660;7.082;2022-11-25T08:28:58;9.40;99.90
5086;DHT22;4715;51.660;7.082;2022-11-25T08:31:23;9.40;99.90
5086;DHT22;4715;51.660;7.082;2022-11-25T08:33:48;9.40;99.90
5086;DHT22;4715;51.660;7.082;2022-11-25T08:36:10;9.40;99.90
5086;DHT22;4715;51.660;7.082;2022-11-25T08:38:32;9.50;99.90
5086;DHT22;4715;51.660;7.082;2022-11-25T08:40:56;9.50;99.90
5086;DHT22;4715;51.660;7.082;2022-11-25T08:43:18;9.50;99.90
5086;DHT22;4715;51.660;7.082;2022-11-25T08:45:42;9.50;99.90
5086;DHT22;4715;51.660;7.082;2022-11-25T08:48:05;9.60;99.90
5086;DHT22;4715;51.660;7.082;2022-11-25T08:50:28;9.60;99.90
5086;DHT22;4715;51.660;7.082;2022-11-25T08:52:50;9.60;99.90
5086;DHT22;4715;51.660;7.082;2022-11-25T08:55:12;9.60;99.90
5086;DHT22;4715;51.660;7.082;2022-11-25T08:57:34;9.70;99.90
5086;DHT22;4715;51.660;7.082;2022-11-25T08:59:55;9.70;99.90
5086;DHT22;4715;51.660;7.082;2022-11-25T09:02:18;9.70;99.90
5086;DHT22;4715;51.660;7.082;2022-11-25T09:04:40;9.80;99.90
5086;DHT22;4715;51.660;7.082;2022-11-25T09:07:05;9.80;99.90
5086;DHT22;4715;51.660;7.082;2022-11-25T09:09:26;9.80;99.90
5086;DHT22;4715;51.660;7.082;2022-11-25T09:11:49;9.90;99.90
5086;DHT22;4715;51.660;7.082;2022-11-25T09:14:10;10.00;99.90
5086;DHT22;4715;51.660;7.082;2022-11-25T09:16:32;10.00;99.90
5086;DHT22;4715;51.660;7.082;2022-11-25T09:18:54;10.10;99.90
5086;DHT22;4715;51.660;7.082;2022-11-25T09:21:19;10.10;99.90
5086;DHT22;4715;51.660;7.082;2022-11-25T09:23:42;10.10;99.90
5086;DHT22;4715;51.660;7.082;2022-11-25T09:26:05;10.20;99.90
5086;DHT22;4715;51.660;7.082;2022-11-25T09:28:28;10.20;99.90
5086;DHT22;4715;51.660;7.082;2022-11-25T09:30:50;10.20;99.90
5086;DHT22;4715;51.660;7.082;2022-11-25T09:33:12;10.20;99.90
5086;DHT22;4715;51.660;7.082;2022-11-25T09:35:35;10.20;99.90
5086;DHT22;4715;51.660;7.082;2022-11-25T09:37:58;10.20;99.90
5086;DHT22;4715;51.660;7.082;2022-11-25T09:40:29;10.20;99.90
5086;DHT22;4715;51.660;7.082;2022-11-25T09:42:59;10.20;99.90
5086;DHT22;4715;51.660;7.082;2022-11-25T09:45:52;10.20;99.90
5086;DHT22;4715;51.660;7.082;2022-11-25T09:48:55;10.20;99.90
5086;DHT22;4715;51.660;7.082;2022-11-25T09:51:20;10.20;99.90
5086;DHT22;4715;51.660;7.082;2022-11-25T09:53:46;10.30;99.90
5086;DHT22;4715;51.660;7.082;2022-11-25T09:56:24;10.30;99.90
5086;DHT22;4715;51.660;7.082;2022-11-25T09:58:51;10.40;99.90
5086;DHT22;4715;51.660;7.082;2022-11-25T10:01:18;10.50;99.90
5086;DHT22;4715;51.660;7.082;2022-11-25T10:03:44;10.60;99.90
5086;DHT22;4715;51.660;7.082;2022-11-25T10:06:14;10.70;99.90
5086;DHT22;4715;51.660;7.082;2022-11-25T10:08:38;10.80;99.90
5086;DHT22;4715;51.660;7.082;2022-11-25T10:11:06;10.90;99.90
5086;DHT22;4715;51.660;7.082;2022-11-25T10:13:41;10.90;99.90
5086;DHT22;4715;51.660;7.082;2022-11-25T10:16:06;10.90;99.90
5086;DHT22;4715;51.660;7.082;2022-11-25T10:18:39;11.00;99.90
5086;DHT22;4715;51.660;7.082;2022-11-25T10:21:03;11.10;99.90
5086;DHT22;4715;51.660;7.082;2022-11-25T10:23:29;11.10;99.90
5086;DHT22;4715;51.660;7.082;2022-11-25T10:25:56;11.20;99.90
5086;DHT22;4715;51.660;7.082;2022-11-25T10:28:21;11.20;99.90
5086;DHT22;4715;51.660;7.082;2022-11-25T10:30:49;11.10;99.90
5086;DHT22;4715;51.660;7.082;2022-11-25T10:33:16;11.10;99.90
5086;DHT22;4715;51.660;7.082;2022-11-25T10:35:44;11.10;99.90
5086;DHT22;4715;51.660;7.082;2022-11-25T10:38:13;11.20;99.90
5086;DHT22;4715;51.660;7.082;2022-11-25T10:40:36;11.20;99.90
5086;DHT22;4715;51.660;7.082;2022-11-25T10:42:59;11.10;99.90
5086;DHT22;4715;51.660;7.082;2022-11-25T10:45:27;11.10;99.90
5086;DHT22;4715;51.660;7.082;2022-11-25T10:48:09;11.00;99.90
5086;DHT22;4715;51.660;7.082;2022-11-25T10:50:40;11.00;99.90
5086;DHT22;4715;51.660;7.082;2022-11-25T10:53:12;11.00;99.90
5086;DHT22;4715;51.660;7.082;2022-11-25T10:55:38;11.00;99.90
5086;DHT22;4715;51.660;7.082;2022-11-25T10:58:25;11.10;99.90
5086;DHT22;4715;51.660;7.082;2022-11-25T11:01:00;11.20;99.90
5086;DHT22;4715;51.660;7.082;2022-11-25T11:03:25;11.30;99.90
5086;DHT22;4715;51.660;7.082;2022-11-25T11:05:49;11.30;99.90
5086;DHT22;4715;51.660;7.082;2022-11-25T11:08:21;11.30;99.90
5086;DHT22;4715;51.660;7.082;2022-11-25T11:10:43;11.30;99.90
5086;DHT22;4715;51.660;7.082;2022-11-25T11:13:19;11.30;99.90
5086;DHT22;4715;51.660;7.082;2022-11-25T11:15:45;11.30;99.90
5086;DHT22;4715;51.660;7.082;2022-11-25T11:18:19;11.40;99.90
5086;DHT22;4715;51.660;7.082;2022-11-25T11:20:47;11.40;99.90
5086;DHT22;4715;51.660;7.082;2022-11-25T11:23:11;11.50;99.90
5086;DHT22;4715;51.660;7.082;2022-11-25T11:25:36;11.60;99.90
5086;DHT22;4715;51.660;7.082;2022-11-25T11:27:59;11.70;99.90
5086;DHT22;4715;51.660;7.082;2022-11-25T11:30:25;11.90;99.90
5086;DHT22;4715;51.660;7.082;2022-11-25T11:32:55;12.00;99.90
5086;DHT22;4715;51.660;7.082;2022-11-25T11:35:22;12.20;99.90
5086;DHT22;4715;51.660;7.082;2022-11-25T11:37:51;12.30;99.90
5086;DHT22;4715;51.660;7.082;2022-11-25T11:40:23;12.40;99.90
5086;DHT22;4715;51.660;7.082;2022-11-25T11:42:56;12.50;99.90
5086;DHT22;4715;51.660;7.082;2022-11-25T11:45:36;12.50;99.90
5086;DHT22;4715;51.660;7.082;2022-11-25T11:48:10;12.50;99.90
5086;DHT22;4715;51.660;7.082;2022-11-25T11:50:36;12.50;99.90
5086;DHT22;4715;51.660;7.082;2022-11-25T11:53:09;12.60;99.90
5086;DHT22;4715;51.660;7.082;2022-11-25T11:55:43;12.70;99.90
5086;DHT22;4715;51.660;7.082;2022-11-25T11:58:15;12.60;99.90
5086;DHT22;4715;51.660;7.082;2022-11-25T12:00:46;12.50;99.90
5086;DHT22;4715;51.660;7.082;2022-11-25T12:03:13;12.40;99.90
5086;DHT22;4715;51.660;7.082;2022-11-25T12:05:37;12.40;99.90
5086;DHT22;4715;51.660;7.082;2022-11-25T12:08:07;12.40;99.90
5086;DHT22;4715;51.660;7.082;2022-11-25T12:10:35;12.50;99.90
5086;DHT22;4715;51.660;7.082;2022-11-25T12:13:05;12.50;99.90
5086;DHT22;4715;51.660;7.082;2022-11-25T12:15:36;12.50;99.90
5086;DHT22;4715;51.660;7.082;2022-11-25T12:18:03;12.50;99.90
5086;DHT22;4715;51.660;7.082;2022-11-25T12:20:35;12.40;99.90
5086;DHT22;4715;51.660;7.082;2022-11-25T12:23:03;12.40;99.90
5086;DHT22;4715;51.660;7.082;2022-11-25T12:25:30;12.30;99.90
5086;DHT22;4715;51.660;7.082;2022-11-25T12:27:59;12.30;99.90
5086;DHT22;4715;51.660;7.082;2022-11-25T12:30:22;12.30;99.90
5086;DHT22;4715;51.660;7.082;2022-11-25T12:32:58;12.30;99.90
5086;DHT22;4715;51.660;7.082;2022-11-25T12:35:34;12.50;99.90
5086;DHT22;4715;51.660;7.082;2022-11-25T12:38:03;12.60;99.90
5086;DHT22;4715;51.660;7.082;2022-11-25T12:40:29;12.60;99.90
5086;DHT22;4715;51.660;7.082;2022-11-25T12:42:59;12.60;99.90
5086;DHT22;4715;51.660;7.082;2022-11-25T12:45:24;12.60;99.90
5086;DHT22;4715;51.660;7.082;2022-11-25T12:47:46;12.60;99.90
5086;DHT22;4715;51.660;7.082;2022-11-25T12:50:15;12.60;99.90
5086;DHT22;4715;51.660;7.082;2022-11-25T12:52:42;12.70;99.90
5086;DHT22;4715;51.660;7.082;2022-11-25T12:55:24;12.60;99.90
5086;DHT22;4715;51.660;7.082;2022-11-25T13:03:59;12.30;99.90
5086;DHT22;4715;51.660;7.082;2022-11-25T13:06:56;12.20;99.90
5086;DHT22;4715;51.660;7.082;2022-11-25T13:09:35;12.10;99.90
5086;DHT22;4715;51.660;7.082;2022-11-25T13:12:16;12.00;99.90
5086;DHT22;4715;51.660;7.082;2022-11-25T13:14:59;11.90;99.90
5086;DHT22;4715;51.660;7.082;2022-11-25T13:17:23;11.90;99.90
5086;DHT22;4715;51.660;7.082;2022-11-25T13:19:46;11.90;99.90
5086;DHT22;4715;51.660;7.082;2022-11-25T13:22:24;12.00;99.90
5086;DHT22;4715;51.660;7.082;2022-11-25T13:24:49;12.10;99.90
5086;DHT22;4715;51.660;7.082;2022-11-25T13:27:29;12.00;99.90
5086;DHT22;4715;51.660;7.082;2022-11-25T13:29:53;12.10;99.90
5086;DHT22;4715;51.660;7.082;2022-11-25T13:32:39;12.00;99.90
5086;DHT22;4715;51.660;7.082;2022-11-25T13:37:52;11.90;99.90
5086;DHT22;4715;51.660;7.082;2022-11-25T13:40:26;11.90;99.90
5086;DHT22;4715;51.660;7.082;2022-11-25T13:42:54;11.90;99.90
5086;DHT22;4715;51.660;7.082;2022-11-25T13:45:25;11.80;99.90
5086;DHT22;4715;51.660;7.082;2022-11-25T13:47:48;11.80;99.90
5086;DHT22;4715;51.660;7.082;2022-11-25T13:50:19;11.80;99.90
5086;DHT22;4715;51.660;7.082;2022-11-25T13:52:47;11.80;99.90
5086;DHT22;4715;51.660;7.082;2022-11-25T13:55:31;11.70;99.90
5086;DHT22;4715;51.660;7.082;2022-11-25T13:58:18;11.70;99.90
5086;DHT22;4715;51.660;7.082;2022-11-25T14:03:44;11.70;99.90
5086;DHT22;4715;51.660;7.082;2022-11-25T14:06:11;11.70;99.90
5086;DHT22;4715;51.660;7.082;2022-11-25T14:08:44;11.70;99.90
5086;DHT22;4715;51.660;7.082;2022-11-25T14:11:34;11.70;99.90
5086;DHT22;4715;51.660;7.082;2022-11-25T14:14:27;11.70;99.90
5086;DHT22;4715;51.660;7.082;2022-11-25T14:17:04;11.70;99.90
5086;DHT22;4715;51.660;7.082;2022-11-25T14:19:44;11.70;99.90
5086;DHT22;4715;51.660;7.082;2022-11-25T14:22:25;11.80;99.90
5086;DHT22;4715;51.660;7.082;2022-11-25T14:25:03;11.80;99.90
5086;DHT22;4715;51.660;7.082;2022-11-25T14:27:28;11.70;99.90
5086;DHT22;4715;51.660;7.082;2022-11-25T14:29:59;11.70;99.90
5086;DHT22;4715;51.660;7.082;2022-11-25T14:32:29;11.70;99.90
5086;DHT22;4715;51.660;7.082;2022-11-25T14:34:58;11.70;99.90
5086;DHT22;4715;51.660;7.082;2022-11-25T14:37:31;11.70;99.90
5086;DHT22;4715;51.660;7.082;2022-11-25T14:39:58;11.70;99.90
5086;DHT22;4715;51.660;7.082;2022-11-25T14:42:22;11.70;99.90
5086;DHT22;4715;51.660;7.082;2022-11-25T14:44:48;11.70;99.90
5086;DHT22;4715;51.660;7.082;2022-11-25T14:47:11;11.60;99.90
5086;DHT22;4715;51.660;7.082;2022-11-25T14:49:44;11.60;99.90
5086;DHT22;4715;51.660;7.082;2022-11-25T14:52:06;11.60;99.90
5086;DHT22;4715;51.660;7.082;2022-11-25T14:54:28;11.60;99.90
5086;DHT22;4715;51.660;7.082;2022-11-25T14:56:50;11.60;99.90
5086;DHT22;4715;51.660;7.082;2022-11-25T14:59:12;11.60;99.90
5086;DHT22;4715;51.660;7.082;2022-11-25T15:01:37;11.60;99.90
5086;DHT22;4715;51.660;7.082;2022-11-25T15:04:05;11.60;99.90
5086;DHT22;4715;51.660;7.082;2022-11-25T15:06:31;11.60;99.90
5086;DHT22;4715;51.660;7.082;2022-11-25T15:08:57;11.60;99.90
5086;DHT22;4715;51.660;7.082;2022-11-25T15:11:26;11.50;99.90
5086;DHT22;4715;51.660;7.082;2022-11-25T15:13:54;11.50;99.90
5086;DHT22;4715;51.660;7.082;2022-11-25T15:16:20;11.50;99.90
5086;DHT22;4715;51.660;7.082;2022-11-25T15:18:47;11.50;99.90
5086;DHT22;4715;51.660;7.082;2022-11-25T15:21:20;11.50;99.90
5086;DHT22;4715;51.660;7.082;2022-11-25T15:23:42;11.50;99.90
5086;DHT22;4715;51.660;7.082;2022-11-25T15:26:15;11.50;99.90
5086;DHT22;4715;51.660;7.082;2022-11-25T15:28:37;11.40;99.90
5086;DHT22;4715;51.660;7.082;2022-11-25T15:31:01;11.40;99.90
5086;DHT22;4715;51.660;7.082;2022-11-25T15:33:23;11.40;99.90
5086;DHT22;4715;51.660;7.082;2022-11-25T15:35:47;11.30;99.90
5086;DHT22;4715;51.660;7.082;2022-11-25T15:38:18;11.30;99.90
5086;DHT22;4715;51.660;7.082;2022-11-25T15:40:54;11.30;99.90
5086;DHT22;4715;51.660;7.082;2022-11-25T15:43:22;11.30;99.90
5086;DHT22;4715;51.660;7.082;2022-11-25T15:45:47;11.20;99.90
5086;DHT22;4715;51.660;7.082;2022-11-25T15:48:15;11.20;99.90
5086;DHT22;4715;51.660;7.082;2022-11-25T15:50:39;11.20;99.90
5086;DHT22;4715;51.660;7.082;2022-11-25T15:53:03;11.20;99.90
5086;DHT22;4715;51.660;7.082;2022-11-25T15:55:31;11.20;99.90
5086;DHT22;4715;51.660;7.082;2022-11-25T15:57:55;11.20;99.90
5086;DHT22;4715;51.660;7.082;2022-11-25T16:00:22;11.10;99.90
5086;DHT22;4715;51.660;7.082;2022-11-25T16:02:52;11.10;99.90
5086;DHT22;4715;51.660;7.082;2022-11-25T16:05:16;11.10;99.90
5086;DHT22;4715;51.660;7.082;2022-11-25T16:07:55;11.10;99.90
5086;DHT22;4715;51.660;7.082;2022-11-25T16:10:18;11.10;99.90
5086;DHT22;4715;51.660;7.082;2022-11-25T16:12:43;11.10;99.90